sensor_id;sensor_type;location;lat;lon;timestamp;P1;durP1;ratioP1;P2;durP2;ratioP2
6372;SDS011;3219;51.362;7.074;2022-10-17T00:02:03;10.75;;;5.28;;
6372;SDS011;3219;51.362;7.074;2022-10-17T00:04:30;8.05;;;5.75;;
6372;SDS011;3219;51.362;7.074;2022-10-17T00:06:58;6.05;;;5.05;;
6372;SDS011;3219;51.362;7.074;2022-10-17T00:09:26;8.63;;;5.93;;
6372;SDS011;3219;51.362;7.074;2022-10-17T00:11:53;10.02;;;5.45;;
6372;SDS011;3219;51.362;7.074;2022-10-17T00:14:21;9.63;;;4.80;;
6372;SDS011;3219;51.362;7.074;2022-10-17T00:16:50;6.68;;;5.18;;
6372;SDS011;3219;51.362;7.074;2022-10-17T00:19:18;6.57;;;4.65;;
6372;SDS011;3219;51.362;7.074;2022-10-17T00:21:47;8.93;;;5.38;;
6372;SDS011;3219;51.362;7.074;2022-10-17T00:24:15;8.50;;;4.75;;
6372;SDS011;3219;51.362;7.074;2022-10-17T00:26:43;7.45;;;5.13;;
6372;SDS011;3219;51.362;7.074;2022-10-17T00:29:11;7.13;;;4.95;;
6372;SDS011;3219;51.362;7.074;2022-10-17T00:31:38;6.65;;;4.70;;
6372;SDS011;3219;51.362;7.074;2022-10-17T00:34:08;6.50;;;5.13;;
6372;SDS011;3219;51.362;7.074;2022-10-17T00:36:36;10.55;;;4.75;;
6372;SDS011;3219;51.362;7.074;2022-10-17T00:39:04;8.52;;;5.03;;
6372;SDS011;3219;51.362;7.074;2022-10-17T00:41:32;6.90;;;4.90;;
6372;SDS011;3219;51.362;7.074;2022-10-17T00:44:01;6.88;;;4.68;;
6372;SDS011;3219;51.362;7.074;2022-10-17T00:46:29;11.32;;;4.95;;
6372;SDS011;3219;51.362;7.074;2022-10-17T00:48:58;5.57;;;5.00;;
6372;SDS011;3219;51.362;7.074;2022-10-17T00:51:31;10.82;;;5.50;;
6372;SDS011;3219;51.362;7.074;2022-10-17T00:53:59;4.72;;;4.28;;
6372;SDS011;3219;51.362;7.074;2022-10-17T00:56:27;9.93;;;4.68;;
6372;SDS011;3219;51.362;7.074;2022-10-17T00:58:56;6.20;;;4.53;;
6372;SDS011;3219;51.362;7.074;2022-10-17T01:01:24;7.88;;;4.65;;
6372;SDS011;3219;51.362;7.074;2022-10-17T01:03:52;7.25;;;4.65;;
6372;SDS011;3219;51.362;7.074;2022-10-17T01:06:19;6.75;;;4.88;;
6372;SDS011;3219;51.362;7.074;2022-10-17T01:08:48;15.15;;;4.57;;
6372;SDS011;3219;51.362;7.074;2022-10-17T01:11:20;8.63;;;4.57;;
6372;SDS011;3219;51.362;7.074;2022-10-17T01:13:51;4.28;;;3.88;;
6372;SDS011;3219;51.362;7.074;2022-10-17T01:16:22;6.78;;;3.95;;
6372;SDS011;3219;51.362;7.074;2022-10-17T01:18:54;9.63;;;4.72;;
6372;SDS011;3219;51.362;7.074;2022-10-17T01:21:30;7.88;;;4.45;;
6372;SDS011;3219;51.362;7.074;2022-10-17T01:29:58;6.28;;;4.13;;
6372;SDS011;3219;51.362;7.074;2022-10-17T01:32:32;7.00;;;4.20;;
6372;SDS011;3219;51.362;7.074;2022-10-17T01:35:02;10.82;;;4.93;;
6372;SDS011;3219;51.362;7.074;2022-10-17T01:37:37;7.10;;;4.13;;
6372;SDS011;3219;51.362;7.074;2022-10-17T01:40:08;6.45;;;4.10;;
6372;SDS011;3219;51.362;7.074;2022-10-17T01:42:37;5.13;;;3.95;;
6372;SDS011;3219;51.362;7.074;2022-10-17T01:45:09;8.20;;;4.55;;
6372;SDS011;3219;51.362;7.074;2022-10-17T01:47:41;10.65;;;5.00;;
6372;SDS011;3219;51.362;7.074;2022-10-17T01:50:11;5.38;;;3.95;;
6372;SDS011;3219;51.362;7.074;2022-10-17T01:52:41;6.87;;;4.60;;
6372;SDS011;3219;51.362;7.074;2022-10-17T01:55:12;10.00;;;4.03;;
6372;SDS011;3219;51.362;7.074;2022-10-17T01:57:42;7.28;;;4.10;;
6372;SDS011;3219;51.362;7.074;2022-10-17T02:00:12;8.05;;;4.82;;
6372;SDS011;3219;51.362;7.074;2022-10-17T02:02:42;8.77;;;4.35;;
6372;SDS011;3219;51.362;7.074;2022-10-17T02:05:11;6.55;;;3.63;;
6372;SDS011;3219;51.362;7.074;2022-10-17T02:07:39;9.48;;;4.13;;
6372;SDS011;3219;51.362;7.074;2022-10-17T02:10:09;9.52;;;3.90;;
6372;SDS011;3219;51.362;7.074;2022-10-17T02:12:41;5.05;;;3.78;;
6372;SDS011;3219;51.362;7.074;2022-10-17T02:15:30;8.30;;;3.90;;
6372;SDS011;3219;51.362;7.074;2022-10-17T02:18:06;4.65;;;4.03;;
6372;SDS011;3219;51.362;7.074;2022-10-17T02:20:36;6.90;;;4.30;;
6372;SDS011;3219;51.362;7.074;2022-10-17T02:23:07;7.70;;;4.07;;
6372;SDS011;3219;51.362;7.074;2022-10-17T02:25:37;7.82;;;3.53;;
6372;SDS011;3219;51.362;7.074;2022-10-17T02:28:08;5.15;;;3.67;;
6372;SDS011;3219;51.362;7.074;2022-10-17T02:30:42;6.70;;;4.32;;
6372;SDS011;3219;51.362;7.074;2022-10-17T02:33:12;8.63;;;3.90;;
6372;SDS011;3219;51.362;7.074;2022-10-17T02:35:42;7.43;;;4.45;;
6372;SDS011;3219;51.362;7.074;2022-10-17T02:38:11;9.15;;;4.10;;
6372;SDS011;3219;51.362;7.074;2022-10-17T02:40:39;7.00;;;4.15;;
6372;SDS011;3219;51.362;7.074;2022-10-17T02:43:08;7.93;;;4.03;;
6372;SDS011;3219;51.362;7.074;2022-10-17T02:45:35;13.20;;;4.55;;
6372;SDS011;3219;51.362;7.074;2022-10-17T02:48:04;7.28;;;3.75;;
6372;SDS011;3219;51.362;7.074;2022-10-17T02:50:38;4.80;;;3.88;;
6372;SDS011;3219;51.362;7.074;2022-10-17T02:53:10;7.28;;;3.75;;
6372;SDS011;3219;51.362;7.074;2022-10-17T02:55:42;5.00;;;4.00;;
6372;SDS011;3219;51.362;7.074;2022-10-17T02:58:12;8.70;;;4.00;;
6372;SDS011;3219;51.362;7.074;2022-10-17T03:00:42;7.93;;;3.83;;
6372;SDS011;3219;51.362;7.074;2022-10-17T03:03:20;11.90;;;4.65;;
6372;SDS011;3219;51.362;7.074;2022-10-17T03:05:50;7.35;;;3.72;;
6372;SDS011;3219;51.362;7.074;2022-10-17T03:08:18;9.82;;;4.30;;
6372;SDS011;3219;51.362;7.074;2022-10-17T03:10:46;8.48;;;4.50;;
6372;SDS011;3219;51.362;7.074;2022-10-17T03:13:14;7.70;;;3.92;;
6372;SDS011;3219;51.362;7.074;2022-10-17T03:15:42;7.55;;;4.50;;
6372;SDS011;3219;51.362;7.074;2022-10-17T03:18:09;9.02;;;4.20;;
6372;SDS011;3219;51.362;7.074;2022-10-17T03:20:37;9.63;;;4.47;;
6372;SDS011;3219;51.362;7.074;2022-10-17T03:23:06;5.60;;;4.03;;
6372;SDS011;3219;51.362;7.074;2022-10-17T03:25:34;4.95;;;3.72;;
6372;SDS011;3219;51.362;7.074;2022-10-17T03:28:02;6.78;;;4.13;;
6372;SDS011;3219;51.362;7.074;2022-10-17T03:30:30;12.45;;;4.57;;
6372;SDS011;3219;51.362;7.074;2022-10-17T03:32:58;6.78;;;3.88;;
6372;SDS011;3219;51.362;7.074;2022-10-17T03:35:26;10.00;;;4.05;;
6372;SDS011;3219;51.362;7.074;2022-10-17T03:37:54;8.90;;;4.00;;
6372;SDS011;3219;51.362;7.074;2022-10-17T03:40:23;7.20;;;3.67;;
6372;SDS011;3219;51.362;7.074;2022-10-17T03:42:51;7.95;;;4.05;;
6372;SDS011;3219;51.362;7.074;2022-10-17T03:45:19;6.57;;;4.05;;
6372;SDS011;3219;51.362;7.074;2022-10-17T03:47:46;9.15;;;4.32;;
6372;SDS011;3219;51.362;7.074;2022-10-17T03:50:14;6.50;;;4.10;;
6372;SDS011;3219;51.362;7.074;2022-10-17T03:52:45;6.50;;;4.20;;
6372;SDS011;3219;51.362;7.074;2022-10-17T03:55:13;8.63;;;4.15;;
6372;SDS011;3219;51.362;7.074;2022-10-17T03:57:42;4.80;;;3.78;;
6372;SDS011;3219;51.362;7.074;2022-10-17T04:00:10;16.08;;;3.63;;
6372;SDS011;3219;51.362;7.074;2022-10-17T04:02:38;9.52;;;4.22;;
6372;SDS011;3219;51.362;7.074;2022-10-17T04:05:07;9.93;;;3.85;;
6372;SDS011;3219;51.362;7.074;2022-10-17T04:07:34;7.40;;;3.78;;
6372;SDS011;3219;51.362;7.074;2022-10-17T04:10:03;8.10;;;3.88;;
6372;SDS011;3219;51.362;7.074;2022-10-17T04:12:31;9.88;;;4.15;;
6372;SDS011;3219;51.362;7.074;2022-10-17T04:15:00;5.72;;;3.80;;
6372;SDS011;3219;51.362;7.074;2022-10-17T04:17:28;11.48;;;4.47;;
6372;SDS011;3219;51.362;7.074;2022-10-17T04:19:57;8.48;;;4.00;;
6372;SDS011;3219;51.362;7.074;2022-10-17T04:22:25;4.40;;;3.78;;
6372;SDS011;3219;51.362;7.074;2022-10-17T04:24:52;7.95;;;4.18;;
6372;SDS011;3219;51.362;7.074;2022-10-17T04:27:19;7.95;;;3.88;;
6372;SDS011;3219;51.362;7.074;2022-10-17T04:29:47;10.38;;;3.58;;
6372;SDS011;3219;51.362;7.074;2022-10-17T04:32:15;8.98;;;3.55;;
6372;SDS011;3219;51.362;7.074;2022-10-17T04:34:43;9.50;;;4.78;;
6372;SDS011;3219;51.362;7.074;2022-10-17T04:37:16;8.82;;;3.92;;
6372;SDS011;3219;51.362;7.074;2022-10-17T04:39:43;8.23;;;3.83;;
6372;SDS011;3219;51.362;7.074;2022-10-17T04:42:10;4.43;;;3.97;;
6372;SDS011;3219;51.362;7.074;2022-10-17T04:44:38;5.20;;;3.65;;
6372;SDS011;3219;51.362;7.074;2022-10-17T04:47:06;6.85;;;3.42;;
6372;SDS011;3219;51.362;7.074;2022-10-17T04:49:35;5.15;;;3.33;;
6372;SDS011;3219;51.362;7.074;2022-10-17T04:52:03;9.90;;;4.15;;
6372;SDS011;3219;51.362;7.074;2022-10-17T04:54:30;5.85;;;3.33;;
6372;SDS011;3219;51.362;7.074;2022-10-17T04:56:58;8.98;;;4.40;;
6372;SDS011;3219;51.362;7.074;2022-10-17T04:59:26;9.77;;;3.75;;
6372;SDS011;3219;51.362;7.074;2022-10-17T05:01:55;7.75;;;3.78;;
6372;SDS011;3219;51.362;7.074;2022-10-17T05:04:23;6.50;;;3.90;;
6372;SDS011;3219;51.362;7.074;2022-10-17T05:06:52;8.23;;;4.05;;
6372;SDS011;3219;51.362;7.074;2022-10-17T05:09:19;8.80;;;3.85;;
6372;SDS011;3219;51.362;7.074;2022-10-17T05:11:46;9.10;;;3.80;;
6372;SDS011;3219;51.362;7.074;2022-10-17T05:14:14;7.47;;;4.05;;
6372;SDS011;3219;51.362;7.074;2022-10-17T05:16:41;5.35;;;3.83;;
6372;SDS011;3219;51.362;7.074;2022-10-17T05:19:08;7.75;;;3.85;;
6372;SDS011;3219;51.362;7.074;2022-10-17T05:21:36;8.93;;;3.30;;
6372;SDS011;3219;51.362;7.074;2022-10-17T05:24:05;4.28;;;3.60;;
6372;SDS011;3219;51.362;7.074;2022-10-17T05:26:33;6.10;;;3.80;;
6372;SDS011;3219;51.362;7.074;2022-10-17T05:29:00;8.70;;;3.72;;
6372;SDS011;3219;51.362;7.074;2022-10-17T05:31:28;5.93;;;3.53;;
6372;SDS011;3219;51.362;7.074;2022-10-17T05:33:58;8.52;;;3.53;;
6372;SDS011;3219;51.362;7.074;2022-10-17T05:36:26;6.25;;;3.60;;
6372;SDS011;3219;51.362;7.074;2022-10-17T05:38:53;8.85;;;4.32;;
6372;SDS011;3219;51.362;7.074;2022-10-17T05:41:22;8.65;;;3.53;;
6372;SDS011;3219;51.362;7.074;2022-10-17T05:43:50;5.97;;;3.70;;
6372;SDS011;3219;51.362;7.074;2022-10-17T05:46:17;5.32;;;4.63;;
6372;SDS011;3219;51.362;7.074;2022-10-17T05:48:45;9.57;;;3.70;;
6372;SDS011;3219;51.362;7.074;2022-10-17T05:51:12;5.15;;;3.40;;
6372;SDS011;3219;51.362;7.074;2022-10-17T05:53:40;5.72;;;3.47;;
6372;SDS011;3219;51.362;7.074;2022-10-17T05:56:08;6.85;;;4.00;;
6372;SDS011;3219;51.362;7.074;2022-10-17T05:58:39;6.88;;;3.45;;
6372;SDS011;3219;51.362;7.074;2022-10-17T06:01:08;6.30;;;3.28;;
6372;SDS011;3219;51.362;7.074;2022-10-17T06:03:36;8.57;;;3.92;;
6372;SDS011;3219;51.362;7.074;2022-10-17T06:06:04;7.15;;;3.42;;
6372;SDS011;3219;51.362;7.074;2022-10-17T06:08:32;7.50;;;3.70;;
6372;SDS011;3219;51.362;7.074;2022-10-17T06:10:59;9.93;;;4.28;;
6372;SDS011;3219;51.362;7.074;2022-10-17T06:13:27;12.32;;;3.85;;
6372;SDS011;3219;51.362;7.074;2022-10-17T06:15:56;6.97;;;3.55;;
6372;SDS011;3219;51.362;7.074;2022-10-17T06:18:24;6.20;;;3.55;;
6372;SDS011;3219;51.362;7.074;2022-10-17T06:20:51;4.72;;;3.63;;
6372;SDS011;3219;51.362;7.074;2022-10-17T06:23:19;11.65;;;4.05;;
6372;SDS011;3219;51.362;7.074;2022-10-17T06:25:47;8.35;;;3.92;;
6372;SDS011;3219;51.362;7.074;2022-10-17T06:28:14;5.50;;;3.63;;
6372;SDS011;3219;51.362;7.074;2022-10-17T06:30:42;6.68;;;3.70;;
6372;SDS011;3219;51.362;7.074;2022-10-17T06:33:11;6.28;;;3.38;;
6372;SDS011;3219;51.362;7.074;2022-10-17T06:35:39;6.72;;;3.53;;
6372;SDS011;3219;51.362;7.074;2022-10-17T06:38:06;5.15;;;3.70;;
6372;SDS011;3219;51.362;7.074;2022-10-17T06:40:34;15.93;;;3.95;;
6372;SDS011;3219;51.362;7.074;2022-10-17T06:43:02;10.88;;;3.75;;
6372;SDS011;3219;51.362;7.074;2022-10-17T06:45:29;7.15;;;3.60;;
6372;SDS011;3219;51.362;7.074;2022-10-17T06:47:57;4.13;;;3.08;;
6372;SDS011;3219;51.362;7.074;2022-10-17T06:50:26;5.57;;;3.65;;
6372;SDS011;3219;51.362;7.074;2022-10-17T06:52:53;7.25;;;3.40;;
6372;SDS011;3219;51.362;7.074;2022-10-17T06:55:21;15.65;;;3.80;;
6372;SDS011;3219;51.362;7.074;2022-10-17T06:57:49;9.13;;;4.15;;
6372;SDS011;3219;51.362;7.074;2022-10-17T07:00:17;8.20;;;3.65;;
6372;SDS011;3219;51.362;7.074;2022-10-17T07:02:45;6.00;;;3.38;;
6372;SDS011;3219;51.362;7.074;2022-10-17T07:05:12;15.10;;;3.40;;
6372;SDS011;3219;51.362;7.074;2022-10-17T07:07:41;9.82;;;3.20;;
6372;SDS011;3219;51.362;7.074;2022-10-17T07:10:09;9.10;;;3.50;;
6372;SDS011;3219;51.362;7.074;2022-10-17T07:12:37;4.72;;;3.30;;
6372;SDS011;3219;51.362;7.074;2022-10-17T07:15:05;8.38;;;4.00;;
6372;SDS011;3219;51.362;7.074;2022-10-17T07:17:32;6.53;;;3.63;;
6372;SDS011;3219;51.362;7.074;2022-10-17T07:20:00;5.95;;;3.30;;
6372;SDS011;3219;51.362;7.074;2022-10-17T07:22:28;7.35;;;3.33;;
6372;SDS011;3219;51.362;7.074;2022-10-17T07:24:57;7.07;;;3.28;;
6372;SDS011;3219;51.362;7.074;2022-10-17T07:27:25;6.72;;;3.10;;
6372;SDS011;3219;51.362;7.074;2022-10-17T07:29:53;7.22;;;3.85;;
6372;SDS011;3219;51.362;7.074;2022-10-17T07:32:20;8.55;;;3.25;;
6372;SDS011;3219;51.362;7.074;2022-10-17T07:34:48;9.38;;;3.10;;
6372;SDS011;3219;51.362;7.074;2022-10-17T07:37:16;4.68;;;3.22;;
6372;SDS011;3219;51.362;7.074;2022-10-17T07:39:43;7.90;;;3.30;;
6372;SDS011;3219;51.362;7.074;2022-10-17T07:42:12;7.68;;;3.25;;
6372;SDS011;3219;51.362;7.074;2022-10-17T07:44:40;7.05;;;2.97;;
6372;SDS011;3219;51.362;7.074;2022-10-17T07:47:11;6.47;;;3.70;;
6372;SDS011;3219;51.362;7.074;2022-10-17T07:49:38;7.05;;;3.42;;
6372;SDS011;3219;51.362;7.074;2022-10-17T07:52:08;8.18;;;3.05;;
6372;SDS011;3219;51.362;7.074;2022-10-17T07:54:36;5.07;;;2.95;;
6372;SDS011;3219;51.362;7.074;2022-10-17T07:57:04;4.53;;;3.03;;
6372;SDS011;3219;51.362;7.074;2022-10-17T07:59:33;8.60;;;3.10;;
6372;SDS011;3219;51.362;7.074;2022-10-17T08:02:01;15.70;;;3.80;;
6372;SDS011;3219;51.362;7.074;2022-10-17T08:04:29;10.15;;;3.42;;
6372;SDS011;3219;51.362;7.074;2022-10-17T08:06:57;5.03;;;3.10;;
6372;SDS011;3219;51.362;7.074;2022-10-17T08:09:26;6.03;;;3.30;;
6372;SDS011;3219;51.362;7.074;2022-10-17T08:11:54;6.05;;;3.50;;
6372;SDS011;3219;51.362;7.074;2022-10-17T08:14:21;6.22;;;3.10;;
6372;SDS011;3219;51.362;7.074;2022-10-17T08:16:51;8.23;;;3.30;;
6372;SDS011;3219;51.362;7.074;2022-10-17T08:19:20;10.43;;;3.13;;
6372;SDS011;3219;51.362;7.074;2022-10-17T08:21:48;8.77;;;3.15;;
6372;SDS011;3219;51.362;7.074;2022-10-17T08:24:16;11.85;;;3.13;;
6372;SDS011;3219;51.362;7.074;2022-10-17T08:26:44;15.85;;;3.58;;
6372;SDS011;3219;51.362;7.074;2022-10-17T08:29:12;6.78;;;3.25;;
6372;SDS011;3219;51.362;7.074;2022-10-17T08:31:39;5.30;;;3.20;;
6372;SDS011;3219;51.362;7.074;2022-10-17T08:34:09;9.43;;;2.78;;
6372;SDS011;3219;51.362;7.074;2022-10-17T08:36:37;6.97;;;2.75;;
6372;SDS011;3219;51.362;7.074;2022-10-17T08:39:04;9.60;;;2.63;;
6372;SDS011;3219;51.362;7.074;2022-10-17T08:41:39;9.95;;;3.00;;
6372;SDS011;3219;51.362;7.074;2022-10-17T08:44:11;8.93;;;3.13;;
6372;SDS011;3219;51.362;7.074;2022-10-17T08:46:42;7.20;;;2.70;;
6372;SDS011;3219;51.362;7.074;2022-10-17T08:49:14;9.23;;;3.30;;
6372;SDS011;3219;51.362;7.074;2022-10-17T08:51:43;6.90;;;2.80;;
6372;SDS011;3219;51.362;7.074;2022-10-17T08:54:15;11.10;;;3.42;;
6372;SDS011;3219;51.362;7.074;2022-10-17T08:56:44;7.40;;;2.90;;
6372;SDS011;3219;51.362;7.074;2022-10-17T08:59:16;4.63;;;2.55;;
6372;SDS011;3219;51.362;7.074;2022-10-17T09:01:45;6.53;;;2.58;;
6372;SDS011;3219;51.362;7.074;2022-10-17T09:04:33;6.20;;;2.90;;
6372;SDS011;3219;51.362;7.074;2022-10-17T09:07:04;11.88;;;3.17;;
6372;SDS011;3219;51.362;7.074;2022-10-17T09:09:35;6.63;;;3.10;;
6372;SDS011;3219;51.362;7.074;2022-10-17T09:12:11;5.32;;;2.40;;
6372;SDS011;3219;51.362;7.074;2022-10-17T09:17:41;6.47;;;2.97;;
6372;SDS011;3219;51.362;7.074;2022-10-17T09:20:17;5.30;;;2.78;;
6372;SDS011;3219;51.362;7.074;2022-10-17T09:22:46;4.85;;;2.80;;
6372;SDS011;3219;51.362;7.074;2022-10-17T09:25:16;8.77;;;2.70;;
6372;SDS011;3219;51.362;7.074;2022-10-17T09:27:45;5.70;;;2.67;;
6372;SDS011;3219;51.362;7.074;2022-10-17T09:30:22;8.98;;;3.20;;
6372;SDS011;3219;51.362;7.074;2022-10-17T09:32:52;16.60;;;3.05;;
6372;SDS011;3219;51.362;7.074;2022-10-17T09:35:21;10.48;;;3.50;;
6372;SDS011;3219;51.362;7.074;2022-10-17T09:37:49;5.68;;;2.92;;
6372;SDS011;3219;51.362;7.074;2022-10-17T09:40:19;7.18;;;3.20;;
6372;SDS011;3219;51.362;7.074;2022-10-17T09:42:48;7.53;;;3.03;;
6372;SDS011;3219;51.362;7.074;2022-10-17T09:45:17;3.85;;;2.85;;
6372;SDS011;3219;51.362;7.074;2022-10-17T09:47:50;8.27;;;3.20;;
6372;SDS011;3219;51.362;7.074;2022-10-17T09:50:20;5.03;;;2.33;;
6372;SDS011;3219;51.362;7.074;2022-10-17T09:52:50;15.63;;;2.75;;
6372;SDS011;3219;51.362;7.074;2022-10-17T09:55:19;9.65;;;3.22;;
6372;SDS011;3219;51.362;7.074;2022-10-17T09:57:50;3.97;;;2.70;;
6372;SDS011;3219;51.362;7.074;2022-10-17T10:00:19;3.90;;;2.75;;
6372;SDS011;3219;51.362;7.074;2022-10-17T10:02:47;6.68;;;3.00;;
6372;SDS011;3219;51.362;7.074;2022-10-17T10:05:15;6.25;;;3.20;;
6372;SDS011;3219;51.362;7.074;2022-10-17T10:07:43;6.90;;;3.80;;
6372;SDS011;3219;51.362;7.074;2022-10-17T10:10:23;8.95;;;3.10;;
6372;SDS011;3219;51.362;7.074;2022-10-17T10:13:02;7.95;;;2.65;;
6372;SDS011;3219;51.362;7.074;2022-10-17T10:15:31;5.97;;;3.17;;
6372;SDS011;3219;51.362;7.074;2022-10-17T10:17:59;5.68;;;3.17;;
6372;SDS011;3219;51.362;7.074;2022-10-17T10:20:27;10.35;;;3.20;;
6372;SDS011;3219;51.362;7.074;2022-10-17T10:23:04;9.18;;;3.30;;
6372;SDS011;3219;51.362;7.074;2022-10-17T10:25:33;9.90;;;3.28;;
6372;SDS011;3219;51.362;7.074;2022-10-17T10:28:00;5.20;;;2.90;;
6372;SDS011;3219;51.362;7.074;2022-10-17T10:30:28;11.10;;;3.30;;
6372;SDS011;3219;51.362;7.074;2022-10-17T10:32:56;16.25;;;3.97;;
6372;SDS011;3219;51.362;7.074;2022-10-17T10:35:28;6.35;;;3.30;;
6372;SDS011;3219;51.362;7.074;2022-10-17T10:37:57;9.07;;;3.05;;
6372;SDS011;3219;51.362;7.074;2022-10-17T10:40:25;7.60;;;3.20;;
6372;SDS011;3219;51.362;7.074;2022-10-17T10:42:55;9.55;;;3.47;;
6372;SDS011;3219;51.362;7.074;2022-10-17T10:45:23;9.57;;;3.90;;
6372;SDS011;3219;51.362;7.074;2022-10-17T10:47:51;11.77;;;3.08;;
6372;SDS011;3219;51.362;7.074;2022-10-17T10:50:21;12.20;;;3.17;;
6372;SDS011;3219;51.362;7.074;2022-10-17T10:52:51;6.07;;;3.43;;
6372;SDS011;3219;51.362;7.074;2022-10-17T10:55:23;10.80;;;3.20;;
6372;SDS011;3219;51.362;7.074;2022-10-17T10:57:52;7.35;;;2.80;;
6372;SDS011;3219;51.362;7.074;2022-10-17T11:00:23;10.80;;;3.95;;
6372;SDS011;3219;51.362;7.074;2022-10-17T11:02:53;4.75;;;2.67;;
6372;SDS011;3219;51.362;7.074;2022-10-17T11:05:24;12.38;;;3.55;;
6372;SDS011;3219;51.362;7.074;2022-10-17T11:07:54;8.63;;;3.40;;
6372;SDS011;3219;51.362;7.074;2022-10-17T11:10:27;11.70;;;3.80;;
6372;SDS011;3219;51.362;7.074;2022-10-17T11:12:58;8.50;;;3.47;;
6372;SDS011;3219;51.362;7.074;2022-10-17T11:15:29;8.20;;;3.45;;
6372;SDS011;3219;51.362;7.074;2022-10-17T11:17:58;7.07;;;3.50;;
6372;SDS011;3219;51.362;7.074;2022-10-17T11:20:28;10.73;;;4.00;;
6372;SDS011;3219;51.362;7.074;2022-10-17T11:25:30;14.65;;;3.55;;
6372;SDS011;3219;51.362;7.074;2022-10-17T11:27:58;10.02;;;3.70;;
6372;SDS011;3219;51.362;7.074;2022-10-17T11:30:27;7.72;;;3.42;;
6372;SDS011;3219;51.362;7.074;2022-10-17T11:33:00;12.95;;;3.50;;
6372;SDS011;3219;51.362;7.074;2022-10-17T11:35:31;9.18;;;3.70;;
6372;SDS011;3219;51.362;7.074;2022-10-17T11:38:02;7.60;;;2.90;;
6372;SDS011;3219;51.362;7.074;2022-10-17T11:40:33;11.07;;;3.83;;
6372;SDS011;3219;51.362;7.074;2022-10-17T11:43:02;8.32;;;3.08;;
6372;SDS011;3219;51.362;7.074;2022-10-17T11:45:35;7.82;;;3.13;;
6372;SDS011;3219;51.362;7.074;2022-10-17T11:48:11;10.65;;;3.80;;
6372;SDS011;3219;51.362;7.074;2022-10-17T11:50:41;11.48;;;3.50;;
6372;SDS011;3219;51.362;7.074;2022-10-17T11:53:10;6.82;;;2.92;;
6372;SDS011;3219;51.362;7.074;2022-10-17T11:55:40;4.65;;;3.10;;
6372;SDS011;3219;51.362;7.074;2022-10-17T11:58:16;6.88;;;3.00;;
6372;SDS011;3219;51.362;7.074;2022-10-17T12:00:48;8.68;;;3.67;;
6372;SDS011;3219;51.362;7.074;2022-10-17T12:03:22;11.93;;;3.45;;
6372;SDS011;3219;51.362;7.074;2022-10-17T12:05:54;9.25;;;3.45;;
6372;SDS011;3219;51.362;7.074;2022-10-17T12:08:24;7.55;;;3.55;;
6372;SDS011;3219;51.362;7.074;2022-10-17T12:10:56;6.55;;;3.42;;
6372;SDS011;3219;51.362;7.074;2022-10-17T12:21:59;8.50;;;3.80;;
6372;SDS011;3219;51.362;7.074;2022-10-17T12:24:31;10.65;;;3.92;;
6372;SDS011;3219;51.362;7.074;2022-10-17T12:29:41;6.35;;;3.25;;
6372;SDS011;3219;51.362;7.074;2022-10-17T12:32:09;6.93;;;3.70;;
6372;SDS011;3219;51.362;7.074;2022-10-17T12:34:37;13.00;;;4.28;;
6372;SDS011;3219;51.362;7.074;2022-10-17T12:37:08;9.10;;;3.67;;
6372;SDS011;3219;51.362;7.074;2022-10-17T12:39:42;10.68;;;3.55;;
6372;SDS011;3219;51.362;7.074;2022-10-17T12:44:56;10.55;;;3.78;;
6372;SDS011;3219;51.362;7.074;2022-10-17T12:47:27;9.20;;;3.72;;
6372;SDS011;3219;51.362;7.074;2022-10-17T12:49:55;9.30;;;3.80;;
6372;SDS011;3219;51.362;7.074;2022-10-17T12:55:09;8.77;;;3.92;;
6372;SDS011;3219;51.362;7.074;2022-10-17T12:57:48;12.52;;;3.67;;
6372;SDS011;3219;51.362;7.074;2022-10-17T13:00:19;6.53;;;3.13;;
6372;SDS011;3219;51.362;7.074;2022-10-17T13:02:47;5.03;;;3.35;;
6372;SDS011;3219;51.362;7.074;2022-10-17T13:05:17;6.60;;;3.92;;
6372;SDS011;3219;51.362;7.074;2022-10-17T13:07:45;10.13;;;4.47;;
6372;SDS011;3219;51.362;7.074;2022-10-17T13:10:22;8.70;;;4.18;;
6372;SDS011;3219;51.362;7.074;2022-10-17T13:12:52;10.40;;;3.92;;
6372;SDS011;3219;51.362;7.074;2022-10-17T13:15:20;9.38;;;4.50;;
6372;SDS011;3219;51.362;7.074;2022-10-17T13:17:55;10.10;;;4.20;;
6372;SDS011;3219;51.362;7.074;2022-10-17T13:20:24;10.18;;;4.38;;
6372;SDS011;3219;51.362;7.074;2022-10-17T13:22:52;9.88;;;4.95;;
6372;SDS011;3219;51.362;7.074;2022-10-17T13:25:23;9.52;;;5.13;;
6372;SDS011;3219;51.362;7.074;2022-10-17T13:27:58;7.78;;;3.90;;
6372;SDS011;3219;51.362;7.074;2022-10-17T13:30:30;7.13;;;4.40;;
6372;SDS011;3219;51.362;7.074;2022-10-17T13:32:57;8.95;;;4.95;;
6372;SDS011;3219;51.362;7.074;2022-10-17T13:35:26;9.10;;;5.20;;
6372;SDS011;3219;51.362;7.074;2022-10-17T13:37:55;12.73;;;6.07;;
6372;SDS011;3219;51.362;7.074;2022-10-17T13:40:25;9.60;;;5.38;;
6372;SDS011;3219;51.362;7.074;2022-10-17T13:42:55;15.53;;;5.17;;
6372;SDS011;3219;51.362;7.074;2022-10-17T13:45:28;7.32;;;4.32;;
6372;SDS011;3219;51.362;7.074;2022-10-17T13:47:57;8.95;;;4.70;;
6372;SDS011;3219;51.362;7.074;2022-10-17T13:50:30;8.20;;;4.03;;
6372;SDS011;3219;51.362;7.074;2022-10-17T13:53:06;10.77;;;4.30;;
6372;SDS011;3219;51.362;7.074;2022-10-17T13:55:36;12.05;;;4.88;;
6372;SDS011;3219;51.362;7.074;2022-10-17T13:58:08;9.52;;;4.45;;
6372;SDS011;3219;51.362;7.074;2022-10-17T14:00:36;9.38;;;4.43;;
6372;SDS011;3219;51.362;7.074;2022-10-17T14:03:04;11.27;;;4.22;;
6372;SDS011;3219;51.362;7.074;2022-10-17T14:05:32;7.78;;;4.35;;
6372;SDS011;3219;51.362;7.074;2022-10-17T14:08:00;19.38;;;4.75;;
6372;SDS011;3219;51.362;7.074;2022-10-17T14:10:30;8.98;;;3.80;;
6372;SDS011;3219;51.362;7.074;2022-10-17T14:13:00;12.57;;;4.70;;
6372;SDS011;3219;51.362;7.074;2022-10-17T14:15:29;8.30;;;4.15;;
6372;SDS011;3219;51.362;7.074;2022-10-17T14:17:58;20.40;;;5.15;;
6372;SDS011;3219;51.362;7.074;2022-10-17T14:20:27;11.00;;;4.10;;
6372;SDS011;3219;51.362;7.074;2022-10-17T14:22:55;11.85;;;4.40;;
6372;SDS011;3219;51.362;7.074;2022-10-17T14:25:26;8.43;;;3.85;;
6372;SDS011;3219;51.362;7.074;2022-10-17T14:27:55;12.45;;;4.93;;
6372;SDS011;3219;51.362;7.074;2022-10-17T14:30:33;7.63;;;4.10;;
6372;SDS011;3219;51.362;7.074;2022-10-17T14:33:01;7.75;;;3.83;;
6372;SDS011;3219;51.362;7.074;2022-10-17T14:35:29;9.68;;;3.65;;
6372;SDS011;3219;51.362;7.074;2022-10-17T14:37:57;8.73;;;3.13;;
6372;SDS011;3219;51.362;7.074;2022-10-17T14:40:25;13.95;;;3.80;;
6372;SDS011;3219;51.362;7.074;2022-10-17T14:42:53;7.90;;;3.20;;
6372;SDS011;3219;51.362;7.074;2022-10-17T14:45:21;13.52;;;3.63;;
6372;SDS011;3219;51.362;7.074;2022-10-17T14:47:50;7.45;;;3.20;;
6372;SDS011;3219;51.362;7.074;2022-10-17T14:50:20;6.93;;;3.95;;
6372;SDS011;3219;51.362;7.074;2022-10-17T14:52:57;10.57;;;3.90;;
6372;SDS011;3219;51.362;7.074;2022-10-17T14:55:25;8.60;;;3.22;;
6372;SDS011;3219;51.362;7.074;2022-10-17T14:57:52;10.25;;;3.72;;
6372;SDS011;3219;51.362;7.074;2022-10-17T15:00:20;8.30;;;3.42;;
6372;SDS011;3219;51.362;7.074;2022-10-17T15:02:48;11.60;;;3.72;;
6372;SDS011;3219;51.362;7.074;2022-10-17T15:05:16;13.73;;;3.67;;
6372;SDS011;3219;51.362;7.074;2022-10-17T15:07:44;8.32;;;3.78;;
6372;SDS011;3219;51.362;7.074;2022-10-17T15:12:57;8.90;;;3.90;;
6372;SDS011;3219;51.362;7.074;2022-10-17T15:15:25;10.35;;;4.30;;
6372;SDS011;3219;51.362;7.074;2022-10-17T15:17:52;10.30;;;3.92;;
6372;SDS011;3219;51.362;7.074;2022-10-17T15:20:21;13.52;;;3.38;;
6372;SDS011;3219;51.362;7.074;2022-10-17T15:22:50;10.63;;;3.75;;
6372;SDS011;3219;51.362;7.074;2022-10-17T15:25:17;5.78;;;3.05;;
6372;SDS011;3219;51.362;7.074;2022-10-17T15:27:44;12.40;;;3.83;;
6372;SDS011;3219;51.362;7.074;2022-10-17T15:30:15;6.35;;;2.88;;
6372;SDS011;3219;51.362;7.074;2022-10-17T15:32:43;10.23;;;3.78;;
6372;SDS011;3219;51.362;7.074;2022-10-17T15:35:10;12.50;;;3.72;;
6372;SDS011;3219;51.362;7.074;2022-10-17T15:37:38;8.43;;;3.90;;
6372;SDS011;3219;51.362;7.074;2022-10-17T15:40:08;16.27;;;4.30;;
6372;SDS011;3219;51.362;7.074;2022-10-17T15:42:36;6.25;;;2.83;;
6372;SDS011;3219;51.362;7.074;2022-10-17T15:45:03;6.45;;;3.28;;
6372;SDS011;3219;51.362;7.074;2022-10-17T15:47:31;13.07;;;3.80;;
6372;SDS011;3219;51.362;7.074;2022-10-17T15:49:59;7.85;;;3.53;;
6372;SDS011;3219;51.362;7.074;2022-10-17T15:52:26;5.82;;;3.35;;
6372;SDS011;3219;51.362;7.074;2022-10-17T15:54:55;7.93;;;3.60;;
6372;SDS011;3219;51.362;7.074;2022-10-17T15:57:22;9.38;;;4.07;;